Time;durP1;ratioP1;P1;durP2;ratioP2;P2;SDS_P1;SDS_P2;PMS_P1;PMS_P2;Temp;Humidity;BMP_temperature;BMP_pressure;BME280_temperature;BME280_humidity;BME280_pressure;Samples;Min_cycle;Max_cycle;Signal;HPM_P1;HPM_P2
2024/03/06 00:02:24;;;;;;;39.22;19.95;;;;;;;9.18;99.37;99457.97;5050770;28;20084;-26
2024/03/06 00:04:50;;;;;;;41.85;20.75;;;;;;;9.29;99.30;99458.38;5050345;28;20089;-26
2024/03/06 00:07:15;;;;;;;41.22;20.35;;;;;;;9.26;99.19;99448.16;5050437;28;20145;-26
2024/03/06 00:09:41;;;;;;;33.75;18.60;;;;;;;9.31;97.77;99457.16;5050500;28;20405;-26
2024/03/06 00:12:06;;;;;;;45.88;21.65;;;;;;;9.53;100.00;99443.69;5050436;28;20076;-27
2024/03/06 00:14:32;;;;;;;45.92;22.23;;;;;;;10.08;99.86;99456.75;5050283;28;20032;-26
2024/03/06 00:16:57;;;;;;;43.78;21.17;;;;;;;9.42;100.00;99453.06;5050321;28;20610;-25
2024/03/06 00:19:23;;;;;;;42.08;20.77;;;;;;;9.38;100.00;99449.19;5050578;28;20040;-25
2024/03/06 00:21:49;;;;;;;43.25;20.58;;;;;;;9.26;100.00;99448.16;5050432;28;20033;-25
2024/03/06 00:24:15;;;;;;;41.05;21.10;;;;;;;9.33;100.00;99456.97;5050619;28;20024;-25
2024/03/06 00:26:42;;;;;;;42.53;20.63;;;;;;;9.41;100.00;99456.78;5049989;28;20055;-26
2024/03/06 00:29:08;;;;;;;41.08;20.15;;;;;;;9.39;100.00;99453.50;5049914;28;20036;-26
2024/03/06 00:31:34;;;;;;;41.35;20.50;;;;;;;9.44;100.00;99460.84;5050111;28;20025;-26
2024/03/06 00:33:59;;;;;;;38.85;20.55;;;;;;;9.58;100.00;99459.84;5049963;28;20331;-26
2024/03/06 00:36:25;;;;;;;36.65;19.17;;;;;;;9.48;100.00;99462.91;5049546;28;20025;-25
2024/03/06 00:38:50;;;;;;;41.75;19.58;;;;;;;9.47;100.00;99458.59;5050023;28;20188;-26
2024/03/06 00:41:15;;;;;;;38.15;19.08;;;;;;;9.55;100.00;99469.03;5049886;28;20432;-38
2024/03/06 00:43:41;;;;;;;37.97;19.95;;;;;;;9.33;100.00;99471.06;5041224;28;20396;-36
2024/03/06 00:46:06;;;;;;;37.03;18.52;;;;;;;9.47;100.00;99479.03;5041164;28;20104;-40
2024/03/06 00:48:32;;;;;;;38.35;19.52;;;;;;;9.34;100.00;99480.66;5049425;28;20032;-40
2024/03/06 00:50:57;;;;;;;36.95;19.20;;;;;;;9.51;100.00;99481.09;5050145;28;20025;-39
2024/03/06 00:53:22;;;;;;;41.88;21.63;;;;;;;9.37;100.00;99482.91;5053709;28;20025;-39
2024/03/06 00:55:48;;;;;;;41.67;19.48;;;;;;;9.36;100.00;99485.75;5053629;28;20104;-39
2024/03/06 00:58:13;;;;;;;42.08;20.92;;;;;;;9.40;100.00;99487.00;5053841;28;20434;-37
2024/03/06 01:00:39;;;;;;;40.47;19.92;;;;;;;9.32;100.00;99487.19;5053717;28;20041;-39
2024/03/06 01:03:04;;;;;;;43.58;22.23;;;;;;;9.35;100.00;99479.63;5053327;28;20082;-39
2024/03/06 01:05:30;;;;;;;44.70;21.48;;;;;;;9.25;100.00;99478.38;5034158;28;20033;-39
2024/03/06 01:07:56;;;;;;;42.50;21.20;;;;;;;9.22;100.00;99473.50;5033220;28;20034;-39
2024/03/06 01:10:22;;;;;;;50.05;23.63;;;;;;;9.45;100.00;99473.13;5033224;28;20462;-39
2024/03/06 01:12:48;;;;;;;48.13;23.48;;;;;;;9.50;100.00;99478.63;5044810;28;20020;-37
2024/03/06 01:15:13;;;;;;;48.15;23.17;;;;;;;9.54;100.00;99483.34;5053212;28;20032;-39
2024/03/06 01:17:39;;;;;;;47.75;23.80;;;;;;;9.31;100.00;99482.88;5053496;28;20476;-38
2024/03/06 01:20:08;;;;;;;44.50;23.27;;;;;;;9.28;100.00;99488.63;5052936;28;20032;-38
2024/03/06 01:22:34;;;;;;;;;;;;;;;9.27;100.00;99495.78;5054241;28;20025;-28
2024/03/06 01:25:00;;;;;;;47.75;23.00;;;;;;;9.18;100.00;99489.00;5045043;28;20003;-38
2024/03/06 01:27:25;;;;;;;47.50;22.33;;;;;;;9.17;100.00;99495.31;5033175;28;20454;-36
2024/03/06 01:29:51;;;;;;;44.75;22.65;;;;;;;9.21;100.00;99483.28;5043617;28;20040;-26
2024/03/06 01:32:16;;;;;;;49.70;23.23;;;;;;;9.30;100.00;99492.69;5053351;28;20425;-26
2024/03/06 01:34:41;;;;;;;46.13;22.73;;;;;;;9.17;100.00;99487.34;5052919;28;20425;-31
2024/03/06 01:37:07;;;;;;;43.63;22.30;;;;;;;9.28;100.00;99497.41;5053356;28;20033;-26
2024/03/06 01:39:33;;;;;;;46.63;23.15;;;;;;;9.25;100.00;99499.63;5053034;28;20028;-26
2024/03/06 01:41:58;;;;;;;40.55;21.67;;;;;;;9.20;100.00;99500.25;5053430;28;20181;-27
2024/03/06 01:44:24;;;;;;;44.78;22.70;;;;;;;9.23;100.00;99493.69;5033206;28;20471;-26
2024/03/06 01:46:49;;;;;;;45.72;22.52;;;;;;;9.11;100.00;99490.81;5048204;28;20103;-26
2024/03/06 01:49:15;;;;;;;42.00;21.40;;;;;;;9.27;100.00;99500.25;5052892;28;20031;-26
2024/03/06 01:51:44;;;;;;;43.03;21.98;;;;;;;9.38;100.00;99502.31;5052957;28;20028;-27
2024/03/06 01:54:10;;;;;;;45.22;22.30;;;;;;;9.28;100.00;99504.56;5052796;28;20116;-26
2024/03/06 01:56:41;;;;;;;44.63;21.92;;;;;;;9.45;100.00;99492.53;5052653;28;20120;-26
2024/03/06 01:59:07;;;;;;;40.90;21.05;;;;;;;9.67;99.33;99495.00;5052612;28;20036;-26
2024/03/06 02:01:33;;;;;;;40.05;21.02;;;;;;;9.51;99.73;99498.88;5052686;28;20083;-27
2024/03/06 02:03:59;;;;;;;43.80;20.85;;;;;;;9.63;99.83;99502.53;5052255;28;20021;-26
2024/03/06 02:06:25;;;;;;;41.40;21.73;;;;;;;9.81;98.87;99493.97;5052573;28;20029;-27
2024/03/06 02:08:51;;;;;;;40.10;21.40;;;;;;;9.75;98.22;99497.47;5052278;28;20025;-27
2024/03/06 02:11:16;;;;;;;45.25;22.90;;;;;;;9.73;98.71;99499.50;5052211;28;20025;-27
2024/03/06 02:13:43;;;;;;;41.92;21.08;;;;;;;9.65;97.77;99500.50;5052289;28;20020;-26
2024/03/06 02:16:10;;;;;;;43.40;21.48;;;;;;;9.56;98.48;99501.75;5052204;28;20025;-26
2024/03/06 02:18:36;;;;;;;44.25;22.10;;;;;;;9.64;99.00;99501.53;5052440;28;20021;-26
2024/03/06 02:21:02;;;;;;;39.03;21.65;;;;;;;9.65;98.27;99511.13;5052415;28;20017;-27
2024/03/06 02:23:27;;;;;;;46.55;22.88;;;;;;;9.58;99.91;99505.00;5050896;28;20092;-27
2024/03/06 02:25:53;;;;;;;42.25;22.35;;;;;;;9.57;99.84;99504.19;5042308;28;20079;-26
2024/03/06 02:28:18;;;;;;;43.97;22.85;;;;;;;9.42;100.00;99495.56;5051997;28;20067;-27
2024/03/06 02:30:44;;;;;;;42.28;21.13;;;;;;;9.40;100.00;99500.28;5051724;28;20032;-25
2024/03/06 02:33:09;;;;;;;47.45;23.55;;;;;;;9.34;100.00;99504.53;5032090;28;20493;-25
2024/03/06 02:35:38;;;;;;;46.33;22.65;;;;;;;9.46;100.00;99501.31;5032179;28;20022;-26
2024/03/06 02:38:07;;;;;;;46.13;23.30;;;;;;;9.33;100.00;99497.63;5032076;28;20484;-26
2024/03/06 02:40:33;;;;;;;43.95;22.25;;;;;;;9.36;100.00;99497.19;5036121;28;20078;-26
2024/03/06 02:42:58;;;;;;;48.17;24.10;;;;;;;9.32;100.00;99511.09;5051721;28;20063;-26
2024/03/06 02:45:24;;;;;;;50.08;24.92;;;;;;;9.33;100.00;99510.91;5051915;28;20048;-27
2024/03/06 02:47:49;;;;;;;47.67;23.77;;;;;;;9.22;100.00;99506.16;5051724;28;20493;-26
2024/03/06 02:50:15;;;;;;;48.38;23.45;;;;;;;9.25;100.00;99510.25;5051925;28;20029;-38
2024/03/06 02:52:40;;;;;;;47.65;25.05;;;;;;;9.28;100.00;99512.50;5051585;28;20136;-36
2024/03/06 02:55:06;;;;;;;48.67;24.77;;;;;;;9.26;100.00;99512.72;5051707;28;20052;-39
2024/03/06 02:57:31;;;;;;;42.47;23.85;;;;;;;9.27;100.00;99506.41;5051740;28;20025;-37
2024/03/06 02:59:58;;;;;;;42.25;22.02;;;;;;;9.27;100.00;99513.53;5052313;28;20025;-35
2024/03/06 03:02:23;;;;;;;44.67;23.20;;;;;;;9.36;100.00;99514.97;5052116;28;20053;-39
2024/03/06 03:04:50;;;;;;;41.83;23.08;;;;;;;9.31;99.95;99515.59;5052207;28;20104;-37
2024/03/06 03:07:15;;;;;;;45.20;23.63;;;;;;;9.32;100.00;99514.56;5051745;28;20044;-39
2024/03/06 03:09:41;;;;;;;42.60;21.83;;;;;;;9.11;100.00;99510.22;5051841;28;20025;-40
2024/03/06 03:12:06;;;;;;;42.85;22.58;;;;;;;9.19;100.00;99520.66;5052291;28;20023;-37
2024/03/06 03:14:32;;;;;;;40.72;20.50;;;;;;;9.21;99.32;99512.47;5050853;28;20469;-39
2024/03/06 03:16:58;;;;;;;37.80;20.15;;;;;;;8.97;100.00;99509.34;5051796;28;20100;-37
2024/03/06 03:19:24;;;;;;;38.63;20.20;;;;;;;9.11;100.00;99523.47;5051813;28;20461;-40
2024/03/06 03:21:49;;;;;;;41.42;20.60;;;;;;;9.39;99.03;99517.25;5051954;28;20169;-40
2024/03/06 03:24:14;;;;;;;42.25;20.10;;;;;;;9.29;99.02;99516.78;5051642;28;20074;-38
2024/03/06 03:26:41;;;;;;;37.80;18.83;;;;;;;9.31;97.97;99520.91;5051291;28;20072;-38
2024/03/06 03:29:07;;;;;;;36.85;19.83;;;;;;;9.32;98.56;99511.09;5051341;28;20029;-38
2024/03/06 03:31:33;;;;;;;34.83;19.38;;;;;;;9.38;97.18;99526.22;5044499;28;20044;-39
2024/03/06 03:33:58;;;;;;;36.63;20.20;;;;;;;9.41;97.86;99517.03;5044336;28;20108;-36
2024/03/06 03:36:24;;;;;;;36.97;18.65;;;;;;;9.34;97.16;99520.47;5051324;28;20035;-40
2024/03/06 03:38:50;;;;;;;37.17;19.25;;;;;;;9.26;98.51;99527.84;5034543;28;20040;-40
2024/03/06 03:41:16;;;;;;;40.03;20.25;;;;;;;9.48;97.80;99529.31;5051235;28;20021;-39
2024/03/06 03:43:42;;;;;;;36.38;19.92;;;;;;;9.54;95.74;99520.53;5035671;28;20086;-38
2024/03/06 03:46:08;;;;;;;37.15;20.40;;;;;;;9.35;97.58;99524.78;5042831;28;20028;-37
2024/03/06 03:48:36;;;;;;;40.85;21.10;;;;;;;9.26;98.82;99518.03;5050935;28;20091;-39
2024/03/06 03:51:05;;;;;;;41.03;21.23;;;;;;;9.34;98.54;99517.00;5043804;28;20092;-36
2024/03/06 03:53:30;;;;;;;43.25;22.02;;;;;;;9.49;96.91;99512.34;5050717;28;20374;-38
2024/03/06 03:55:56;;;;;;;38.83;20.88;;;;;;;9.47;96.84;99529.50;5031304;28;20040;-38
2024/03/06 03:58:21;;;;;;;38.42;20.27;;;;;;;9.43;97.42;99530.94;5040078;28;20033;-38
2024/03/06 04:00:47;;;;;;;41.30;21.73;;;;;;;9.23;97.96;99533.53;5050696;28;20031;-39
2024/03/06 04:03:12;;;;;;;39.35;20.65;;;;;;;9.38;97.22;99537.66;5050593;28;20036;-39
2024/03/06 04:05:37;;;;;;;36.35;20.40;;;;;;;9.43;95.83;99530.94;5034131;28;20474;-40
2024/03/06 04:08:05;;;;;;;35.75;18.80;;;;;;;9.43;95.02;99545.03;5035786;28;20082;-39
2024/03/06 04:10:31;;;;;;;36.25;18.75;;;;;;;9.38;95.90;99550.13;5037573;28;20031;-38
2024/03/06 04:12:58;;;;;;;32.95;18.55;;;;;;;9.36;95.95;99544.19;5050529;28;20017;-38
2024/03/06 04:15:23;;;;;;;33.55;18.75;;;;;;;9.38;95.66;99548.28;5050669;28;20489;-38
2024/03/06 04:17:50;;;;;;;31.67;17.40;;;;;;;9.31;95.32;99549.28;5047677;28;20033;-36
2024/03/06 04:20:16;;;;;;;35.03;17.30;;;;;;;9.16;95.39;99550.25;5035931;28;20048;-40
2024/03/06 04:22:41;;;;;;;32.53;17.80;;;;;;;9.18;95.98;99556.19;5045191;28;20454;-39
2024/03/06 04:25:07;;;;;;;32.75;17.45;;;;;;;9.10;95.65;99556.38;5050844;28;20033;-38
2024/03/06 04:27:33;;;;;;;29.65;16.05;;;;;;;9.00;95.51;99556.75;5055132;28;20043;-38
2024/03/06 04:29:58;;;;;;;30.00;16.35;;;;;;;9.00;94.61;99556.75;5054340;28;20140;-38
2024/03/06 04:32:24;;;;;;;28.27;15.85;;;;;;;9.08;93.61;99554.91;5054754;28;20025;-38
2024/03/06 04:34:49;;;;;;;28.25;15.80;;;;;;;9.02;93.77;99558.38;5053974;28;20114;-39
2024/03/06 04:37:15;;;;;;;28.48;15.20;;;;;;;9.00;93.88;99561.22;5034520;28;20113;-36
2024/03/06 04:39:41;;;;;;;25.25;14.93;;;;;;;9.03;93.69;99560.03;5034614;28;20102;-37
2024/03/06 04:42:06;;;;;;;25.77;14.10;;;;;;;9.07;93.33;99563.91;5034909;28;20118;-39
2024/03/06 04:44:34;;;;;;;27.77;15.20;;;;;;;9.10;92.85;99566.16;5034596;28;20093;-37
2024/03/06 04:46:59;;;;;;;28.65;15.07;;;;;;;9.27;91.45;99571.94;5033140;28;20025;-39
2024/03/06 04:49:24;;;;;;;24.45;14.00;;;;;;;8.88;93.75;99576.06;5033044;28;20048;-38
2024/03/06 04:51:50;;;;;;;25.23;14.30;;;;;;;8.74;93.87;99575.19;5033062;28;20048;-39
2024/03/06 04:54:15;;;;;;;25.83;14.07;;;;;;;8.90;92.23;99572.19;5032957;28;20027;-39
2024/03/06 04:56:40;;;;;;;25.88;13.93;;;;;;;8.86;92.42;99576.25;5033188;28;20029;-37
2024/03/06 04:59:06;;;;;;;26.90;13.82;;;;;;;8.79;92.13;99586.00;5032748;28;20160;-36
2024/03/06 05:01:31;;;;;;;25.33;13.95;;;;;;;8.84;91.45;99583.59;5033103;28;20481;-38
2024/03/06 05:03:56;;;;;;;25.90;14.07;;;;;;;8.86;90.66;99578.09;5033644;28;20116;-38
2024/03/06 05:06:23;;;;;;;25.23;14.23;;;;;;;8.79;90.51;99586.00;5034609;28;20034;-39
2024/03/06 05:08:48;;;;;;;36.75;20.73;;;;;;;8.83;88.79;99571.34;5034361;28;20033;-38
2024/03/06 05:11:14;;;;;;;30.30;16.60;;;;;;;8.98;88.08;99584.47;5034474;28;20075;-38
2024/03/06 05:13:39;;;;;;;25.00;14.95;;;;;;;8.77;88.22;99590.69;5039845;28;20052;-36
2024/03/06 05:16:05;;;;;;;22.13;12.50;;;;;;;8.59;88.87;99591.22;5049284;28;20055;-38
2024/03/06 05:18:31;;;;;;;21.58;11.70;;;;;;;8.49;88.81;99580.94;5054247;28;20424;-40
2024/03/06 05:20:56;;;;;;;20.85;11.15;;;;;;;8.56;89.31;99589.75;5054152;28;20542;-37
2024/03/06 05:23:23;;;;;;;18.85;11.02;;;;;;;8.52;89.92;99601.75;5054427;28;20044;-39
2024/03/06 05:25:48;;;;;;;18.60;11.35;;;;;;;8.41;89.26;99599.59;5054260;28;20041;-39
2024/03/06 05:28:13;;;;;;;22.30;11.68;;;;;;;8.47;88.81;99606.81;5054036;28;20044;-40
2024/03/06 05:30:39;;;;;;;21.63;11.50;;;;;;;8.43;89.00;99610.88;5051666;28;20373;-36
2024/03/06 05:33:05;;;;;;;23.67;12.02;;;;;;;8.27;89.54;99616.44;5052933;28;20035;-40
2024/03/06 05:35:30;;;;;;;22.25;10.68;;;;;;;8.42;89.17;99625.16;5052782;28;20048;-38
2024/03/06 05:37:56;;;;;;;23.85;11.90;;;;;;;8.55;88.39;99621.78;5051745;28;20482;-41
2024/03/06 05:40:22;;;;;;;18.95;11.10;;;;;;;8.37;88.88;99624.88;5052624;28;20029;-40
2024/03/06 05:42:47;;;;;;;20.67;12.30;;;;;;;8.46;89.33;99629.06;5051913;28;20020;-41
2024/03/06 05:45:12;;;;;;;21.48;12.15;;;;;;;8.61;88.97;99610.41;5050999;28;20706;-38
2024/03/06 05:47:38;;;;;;;21.17;12.20;;;;;;;8.67;88.63;99630.03;5051408;28;20056;-39
2024/03/06 05:50:08;;;;;;;19.15;11.93;;;;;;;8.59;89.19;99625.69;5051467;28;20060;-40
2024/03/06 05:52:36;;;;;;;;;;;;;;;8.76;89.49;99621.72;5052788;28;20192;-39
2024/03/06 05:55:02;;;;;;;20.98;11.75;;;;;;;8.79;89.72;99625.81;5051918;28;19970;-40
2024/03/06 05:57:27;;;;;;;21.10;12.40;;;;;;;8.80;90.06;99633.59;5052166;28;20478;-38
2024/03/06 05:59:52;;;;;;;20.98;12.00;;;;;;;8.90;90.25;99632.41;5053394;28;20033;-40
2024/03/06 06:02:19;;;;;;;23.80;12.48;;;;;;;9.10;88.97;99633.34;5053778;28;20056;-38
2024/03/06 06:04:45;;;;;;;22.10;12.98;;;;;;;9.14;88.75;99631.94;5053897;28;20025;-41
2024/03/06 06:07:10;;;;;;;20.10;11.70;;;;;;;9.13;89.19;99643.56;5053554;28;20033;-40
2024/03/06 06:09:35;;;;;;;19.90;12.20;;;;;;;9.29;87.46;99642.44;5053542;28;20067;-40
2024/03/06 06:12:01;;;;;;;21.17;12.43;;;;;;;9.19;88.50;99640.16;5054111;28;20066;-38
2024/03/06 06:14:29;;;;;;;20.48;12.05;;;;;;;9.82;84.59;99641.78;5053591;28;20108;-42
2024/03/06 06:16:56;;;;;;;22.30;11.25;;;;;;;9.79;84.55;99637.69;5053942;28;20374;-38
2024/03/06 06:19:21;;;;;;;18.55;10.30;;;;;;;10.11;83.26;99643.28;5053409;28;20474;-40
2024/03/06 06:21:47;;;;;;;19.80;10.48;;;;;;;10.09;83.36;99641.81;5053421;28;20028;-41
2024/03/06 06:24:13;;;;;;;17.88;10.45;;;;;;;10.60;79.95;99654.56;5053238;28;20041;-38
2024/03/06 06:26:38;;;;;;;15.68;9.38;;;;;;;10.51;79.29;99651.31;5052898;28;20049;-41
2024/03/06 06:29:04;;;;;;;16.60;9.40;;;;;;;10.53;78.77;99651.94;5052898;28;20060;-40
2024/03/06 06:31:30;;;;;;;16.85;9.95;;;;;;;10.54;78.07;99653.53;5053532;28;20108;-39
2024/03/06 06:33:55;;;;;;;14.02;9.43;;;;;;;10.24;80.04;99660.25;5053468;28;20358;-40
2024/03/06 06:36:20;;;;;;;15.38;9.48;;;;;;;10.06;79.70;99651.03;5053267;28;20024;-41
2024/03/06 06:38:47;;;;;;;18.70;10.18;;;;;;;10.50;78.33;99654.97;5053128;28;20481;-37
2024/03/06 06:41:14;;;;;;;16.98;8.65;;;;;;;11.06;76.29;99656.38;5053160;28;20419;-40
2024/03/06 06:43:41;;;;;;;15.02;8.73;;;;;;;11.58;74.15;99658.25;5039567;28;20028;-41
2024/03/06 06:46:07;;;;;;;15.23;9.13;;;;;;;11.88;72.73;99655.81;5033160;28;20033;-28
2024/03/06 06:48:33;;;;;;;14.95;9.18;;;;;;;12.44;70.88;99657.72;5032877;28;20078;-27
2024/03/06 06:51:00;;;;;;;14.18;8.82;;;;;;;12.32;70.61;99654.94;5032958;28;20036;-28
2024/03/06 06:53:25;;;;;;;16.10;9.18;;;;;;;12.65;69.51;99656.50;5033027;28;20033;-29
2024/03/06 06:55:51;;;;;;;12.52;7.93;;;;;;;12.43;68.06;99652.59;5033156;28;20025;-27
2024/03/06 06:58:16;;;;;;;16.40;8.80;;;;;;;12.34;68.65;99654.72;5033040;28;20068;-28
2024/03/06 07:00:42;;;;;;;13.45;8.55;;;;;;;12.67;68.17;99658.97;5032866;28;20025;-27
2024/03/06 07:03:07;;;;;;;15.02;9.43;;;;;;;13.09;66.60;99668.00;5032922;28;20477;-27
2024/03/06 07:05:33;;;;;;;14.68;9.10;;;;;;;13.20;65.32;99671.00;5033409;28;20484;-29
2024/03/06 07:07:58;;;;;;;15.30;8.80;;;;;;;13.27;64.20;99677.91;5033072;28;20096;-28
2024/03/06 07:10:23;;;;;;;13.13;8.48;;;;;;;13.55;64.06;99662.38;5032864;28;20021;-27
2024/03/06 07:12:49;;;;;;;15.55;8.82;;;;;;;13.81;62.29;99671.94;5032291;28;20021;-28
2024/03/06 07:15:14;;;;;;;15.02;9.88;;;;;;;14.10;62.26;99669.47;5032824;28;20116;-28
2024/03/06 07:17:39;;;;;;;28.60;17.70;;;;;;;14.58;61.48;99663.19;5033014;28;20036;-27
2024/03/06 07:20:06;;;;;;;21.50;9.85;;;;;;;14.94;58.77;99666.69;5032632;28;20646;-28
2024/03/06 07:22:31;;;;;;;17.08;10.10;;;;;;;14.92;58.11;99666.91;5032383;28;20033;-29
2024/03/06 07:24:57;;;;;;;16.67;9.68;;;;;;;14.51;60.03;99673.16;5031557;28;20040;-27
2024/03/06 07:27:22;;;;;;;14.88;9.10;;;;;;;14.88;59.65;99671.13;5031715;28;20551;-28
2024/03/06 07:29:47;;;;;;;15.95;9.10;;;;;;;15.85;65.79;99677.72;5031512;28;20028;-29
2024/03/06 07:32:13;;;;;;;16.90;9.73;;;;;;;16.88;66.31;99664.13;5031954;28;20085;-28
2024/03/06 07:34:38;;;;;;;16.00;9.02;;;;;;;18.28;53.15;99675.50;5031630;28;20462;-29
2024/03/06 07:37:04;;;;;;;15.32;9.18;;;;;;;18.87;53.25;99672.72;5031961;28;20040;-28
2024/03/06 07:39:31;;;;;;;12.38;8.23;;;;;;;19.68;52.53;99670.66;5031472;28;20025;-28
2024/03/06 07:41:57;;;;;;;13.55;8.57;;;;;;;20.62;49.13;99675.97;5031703;28;20038;-29
2024/03/06 07:44:22;;;;;;;14.05;8.95;;;;;;;21.19;47.79;99669.38;5031540;28;20029;-28
2024/03/06 07:46:48;;;;;;;80.50;42.10;;;;;;;21.13;50.54;99665.06;5031826;28;20434;-29
2024/03/06 07:49:14;;;;;;;13.77;9.88;;;;;;;21.44;43.49;99668.50;5031481;28;20021;-28
2024/03/06 07:51:40;;;;;;;15.38;8.82;;;;;;;21.26;43.33;99659.06;5031477;28;20116;-28
2024/03/06 07:54:06;;;;;;;11.57;7.88;;;;;;;21.04;42.72;99662.13;5031325;28;20029;-28
2024/03/06 07:56:31;;;;;;;14.00;8.45;;;;;;;21.09;42.41;99664.81;5031099;28;20033;-28
2024/03/06 07:58:57;;;;;;;10.23;7.35;;;;;;;20.81;42.54;99668.94;5031343;28;20109;-28
2024/03/06 08:01:23;;;;;;;16.17;11.48;;;;;;;20.56;42.73;99666.22;5030406;28;20052;-28
2024/03/06 08:03:49;;;;;;;13.02;9.50;;;;;;;20.21;43.63;99668.66;5031160;28;20033;-29
2024/03/06 08:06:17;;;;;;;13.00;7.55;;;;;;;20.78;42.33;99663.25;5031228;28;20026;-27
2024/03/06 08:08:44;;;;;;;10.55;7.57;;;;;;;20.57;42.66;99654.34;5030916;28;20148;-30
2024/03/06 08:11:13;;;;;;;12.30;7.50;;;;;;;20.61;41.51;99663.56;5030818;28;20037;-28
2024/03/06 08:13:39;;;;;;;12.15;7.35;;;;;;;20.61;41.64;99664.34;5030956;28;20048;-28
2024/03/06 08:16:05;;;;;;;16.42;7.53;;;;;;;20.66;41.85;99671.66;5030701;28;20071;-27
2024/03/06 08:18:30;;;;;;;11.18;7.43;;;;;;;20.64;42.15;99674.63;5030638;28;20033;-28
2024/03/06 08:20:56;;;;;;;11.43;7.75;;;;;;;21.22;40.87;99662.59;5030543;28;20037;-27
2024/03/06 08:23:23;;;;;;;10.55;7.45;;;;;;;21.56;40.57;99667.38;5030856;28;20377;-28
2024/03/06 08:25:48;;;;;;;15.35;7.85;;;;;;;21.03;40.21;99665.09;5030462;28;20466;-28
2024/03/06 08:28:14;;;;;;;11.48;7.85;;;;;;;21.33;40.91;99658.78;5030931;28;20025;-26
2024/03/06 08:30:39;;;;;;;13.23;7.90;;;;;;;21.51;40.16;99657.38;5030752;28;20030;-28
2024/03/06 08:33:05;;;;;;;11.80;7.75;;;;;;;22.05;39.01;99661.16;5030851;28;20022;-29
2024/03/06 08:35:31;;;;;;;11.27;7.55;;;;;;;22.29;37.76;99661.25;5030757;28;20033;-28
2024/03/06 08:37:57;;;;;;;11.25;7.80;;;;;;;21.86;39.40;99656.38;5030773;28;20108;-29
2024/03/06 08:40:23;;;;;;;13.55;7.85;;;;;;;21.33;39.60;99652.56;5030684;28;20104;-28
2024/03/06 08:42:48;;;;;;;13.07;7.78;;;;;;;21.97;38.95;99656.31;5037392;28;20049;-27
2024/03/06 08:45:14;;;;;;;12.23;8.10;;;;;;;22.37;38.62;99657.94;5050570;28;20068;-28
2024/03/06 08:47:40;;;;;;;10.57;7.88;;;;;;;23.01;37.24;99650.53;5050110;28;20116;-28
2024/03/06 08:50:07;;;;;;;11.38;7.50;;;;;;;23.27;37.38;99650.28;5050135;28;20036;-30
2024/03/06 08:52:34;;;;;;;10.70;7.60;;;;;;;23.45;35.97;99643.25;5050505;28;20107;-28
2024/03/06 08:55:00;;;;;;;13.30;7.50;;;;;;;22.86;36.69;99650.69;5050224;28;20080;-29
2024/03/06 08:57:28;;;;;;;15.43;7.40;;;;;;;23.10;36.78;99650.75;5050627;28;20468;-29
2024/03/06 08:59:56;;;;;;;10.95;7.25;;;;;;;23.46;37.71;99652.25;5050315;28;20029;-28
2024/03/06 09:02:22;;;;;;;11.55;7.70;;;;;;;22.79;37.26;99656.47;5048469;28;20424;-26
2024/03/06 09:04:47;;;;;;;10.07;7.38;;;;;;;23.07;37.06;99650.53;5049976;28;20033;-28
2024/03/06 09:07:14;;;;;;;14.00;7.50;;;;;;;23.14;36.41;99654.50;5050510;28;20033;-30
2024/03/06 09:09:39;;;;;;;10.68;6.75;;;;;;;23.65;36.26;99650.34;5050290;28;20032;-30
2024/03/06 09:12:06;;;;;;;9.73;6.85;;;;;;;23.95;34.95;99648.31;5050890;28;20013;-29
2024/03/06 09:14:35;;;;;;;14.30;7.00;;;;;;;24.46;34.45;99652.94;5053878;28;20114;-28
2024/03/06 09:17:01;;;;;;;8.82;6.93;;;;;;;24.75;33.86;99635.59;5054452;28;20032;-27
2024/03/06 09:19:26;;;;;;;11.10;7.20;;;;;;;25.16;33.72;99651.16;5053875;28;20024;-27
2024/03/06 09:21:53;;;;;;;14.15;8.15;;;;;;;25.20;33.59;99654.06;5053458;28;20024;-27
2024/03/06 09:24:21;;;;;;;14.93;8.48;;;;;;;24.64;33.68;99634.19;5053103;28;20048;-28
2024/03/06 09:26:48;;;;;;;10.63;6.90;;;;;;;24.67;33.63;99644.44;5052978;28;20124;-28
2024/03/06 09:29:13;;;;;;;10.38;6.65;;;;;;;24.65;33.06;99622.19;5053193;28;20104;-27
2024/03/06 09:31:39;;;;;;;11.75;6.68;;;;;;;24.26;33.82;99636.97;5052983;28;20549;-29
2024/03/06 09:34:04;;;;;;;10.25;6.70;;;;;;;23.99;34.08;99630.34;5052813;28;20023;-29
2024/03/06 09:36:29;;;;;;;9.45;6.28;;;;;;;23.51;33.60;99631.22;5052855;28;20546;-27
2024/03/06 09:38:55;;;;;;;8.77;6.43;;;;;;;23.33;33.97;99627.41;5053428;28;20080;-28
2024/03/06 09:41:22;;;;;;;11.13;7.32;;;;;;;22.49;36.04;99630.47;5054054;28;20104;-27
2024/03/06 09:43:48;;;;;;;9.35;6.50;;;;;;;22.59;35.95;99626.84;5053803;28;20025;-27
2024/03/06 09:46:14;;;;;;;9.70;6.80;;;;;;;22.58;35.67;99623.34;5054139;28;20365;-27
2024/03/06 09:48:50;;;;;;;11.98;6.97;;;;;;;23.09;35.52;99624.69;5052308;28;20098;-28
2024/03/06 09:51:16;;;;;;;11.32;6.93;;;;;;;22.69;36.67;99615.09;5053770;28;20078;-27
2024/03/06 09:53:45;;;;;;;8.93;6.70;;;;;;;22.61;35.87;99620.03;5054046;28;20028;-28
2024/03/06 09:56:10;;;;;;;9.18;6.50;;;;;;;22.89;35.79;99616.78;5054028;28;20526;-27
2024/03/06 09:58:35;;;;;;;15.43;6.63;;;;;;;22.79;35.03;99613.09;5053882;28;20032;-29
2024/03/06 10:01:07;;;;;;;10.18;6.25;;;;;;;22.43;35.84;99609.91;5054006;28;20033;-38
2024/03/06 10:03:33;;;;;;;9.68;6.43;;;;;;;23.18;34.92;99608.59;5053965;28;20044;-42
2024/03/06 10:05:58;;;;;;;9.02;6.30;;;;;;;23.77;33.33;99615.38;5053727;28;20440;-40
2024/03/06 10:08:26;;;;;;;7.55;5.85;;;;;;;24.27;32.63;99608.66;5053342;28;20476;-44
2024/03/06 10:10:52;;;;;;;9.55;5.90;;;;;;;24.67;33.34;99598.19;5053289;28;20017;-40
2024/03/06 10:13:17;;;;;;;8.95;6.28;;;;;;;24.92;31.99;99607.78;5053248;28;20025;-39
2024/03/06 10:16:03;;;;;;;10.38;6.40;;;;;;;25.17;31.63;99598.31;5052652;28;20090;-40
2024/03/06 10:18:30;;;;;;;11.77;6.47;;;;;;;25.10;31.83;99600.63;5051852;28;20039;-40
2024/03/06 10:20:56;;;;;;;11.05;6.75;;;;;;;25.17;32.22;99598.31;5052231;28;20028;-42
2024/03/06 10:23:21;;;;;;;14.15;6.85;;;;;;;24.14;32.92;99600.19;5051534;28;20021;-39
2024/03/06 10:25:53;;;;;;;10.98;6.80;;;;;;;24.60;32.46;99593.19;5051935;28;20072;-40
2024/03/06 10:28:20;;;;;;;11.88;6.72;;;;;;;23.55;33.57;99586.13;5052016;28;20031;-37
2024/03/06 10:30:46;;;;;;;12.85;6.15;;;;;;;24.48;32.70;99588.16;5052047;28;20382;-40
2024/03/06 10:33:13;;;;;;;12.30;6.65;;;;;;;24.62;31.64;99585.53;5052657;28;20516;-39
2024/03/06 10:35:41;;;;;;;11.15;6.93;;;;;;;24.95;31.48;99580.78;5052862;28;20100;-39
2024/03/06 10:38:08;;;;;;;9.10;6.43;;;;;;;24.92;31.14;99581.41;5052927;28;20025;-38
2024/03/06 10:40:38;;;;;;;9.25;6.32;;;;;;;24.07;32.21;99585.38;5053245;28;20020;-44
2024/03/06 10:43:07;;;;;;;10.75;6.65;;;;;;;23.58;32.82;99573.84;5053149;28;20074;-40
2024/03/06 10:45:49;;;;;;;9.75;6.20;;;;;;;24.20;32.45;99574.53;5052622;28;20052;-42
2024/03/06 10:48:16;;;;;;;7.68;5.80;;;;;;;24.75;31.41;99573.84;5052654;28;20025;-41
2024/03/06 10:50:44;;;;;;;10.02;6.10;;;;;;;24.14;31.44;99564.84;5052914;28;20021;-41
2024/03/06 10:53:11;;;;;;;9.63;6.35;;;;;;;24.58;30.75;99560.81;5052819;28;20629;-41
2024/03/06 10:55:37;;;;;;;9.63;6.85;;;;;;;24.26;31.76;99552.69;5052403;28;20028;-39
2024/03/06 10:58:09;;;;;;;9.93;6.80;;;;;;;25.16;31.03;99548.50;5052227;28;20036;-37
2024/03/06 11:00:43;;;;;;;11.52;6.82;;;;;;;24.30;30.59;99556.44;5052395;28;20017;-42
2024/03/06 11:03:12;;;;;;;12.95;6.47;;;;;;;22.96;33.26;99547.50;5052068;28;20349;-41
2024/03/06 11:05:39;;;;;;;8.75;6.25;;;;;;;23.74;31.47;99548.09;5051996;28;20025;-42
2024/03/06 11:08:16;;;;;;;9.95;6.25;;;;;;;23.37;32.20;99546.97;5051899;28;20112;-41
2024/03/06 11:10:43;;;;;;;11.93;6.78;;;;;;;22.90;33.50;99543.22;5051735;28;20025;-39
2024/03/06 11:13:28;;;;;;;10.63;7.35;;;;;;;22.60;35.56;99542.50;5051956;28;20020;-39
2024/03/06 11:15:57;;;;;;;11.65;6.65;;;;;;;22.95;34.54;99537.75;5052096;28;20025;-42
2024/03/06 11:18:29;;;;;;;11.73;6.47;;;;;;;23.90;32.95;99537.81;5051681;28;20024;-39
2024/03/06 11:21:03;;;;;;;11.75;6.55;;;;;;;23.68;32.41;99537.56;5051937;28;20025;-42